createdAt,value
2019-01-13T00:00:43.463Z,75.72
2019-01-13T00:01:48.376Z,75.84
2019-01-13T00:02:51.739Z,75.78
2019-01-13T00:03:55.400Z,75.84
2019-01-13T00:04:58.689Z,75.85
2019-01-13T00:06:01.992Z,76.01
2019-01-13T00:07:05.356Z,76.05
2019-01-13T00:08:08.668Z,76.10
2019-01-13T00:09:12.536Z,76.05
2019-01-13T00:10:15.893Z,76.16
2019-01-13T00:11:19.273Z,76.28
2019-01-13T00:12:22.639Z,76.36
2019-01-13T00:13:25.938Z,76.29
2019-01-13T00:14:29.262Z,75.94
2019-01-13T00:15:32.544Z,75.67
2019-01-13T00:16:35.970Z,75.64
2019-01-13T00:17:39.347Z,75.69
2019-01-13T00:18:42.621Z,75.77
2019-01-13T00:19:45.909Z,76.01
2019-01-13T00:20:49.196Z,76.21
2019-01-13T00:21:52.582Z,75.96
2019-01-13T00:22:55.941Z,75.63
2019-01-13T00:23:59.292Z,75.50
2019-01-13T00:25:02.654Z,75.30
2019-01-13T00:26:05.943Z,75.33
2019-01-13T00:27:09.271Z,75.39
2019-01-13T00:28:12.563Z,75.80
2019-01-13T00:29:15.858Z,75.82
2019-01-13T00:30:19.823Z,75.75
2019-01-13T00:31:23.060Z,75.40
2019-01-13T00:32:26.375Z,75.49
2019-01-13T00:33:29.666Z,75.69
2019-01-13T00:34:32.960Z,75.90
2019-01-13T00:35:36.245Z,75.58
2019-01-13T00:36:39.542Z,75.23
2019-01-13T00:37:42.911Z,75.13
2019-01-13T00:38:46.204Z,75.02
2019-01-13T00:39:49.635Z,74.83
2019-01-13T00:40:52.927Z,74.85
2019-01-13T00:41:56.213Z,75.14
2019-01-13T00:42:59.926Z,75.54
2019-01-13T00:44:03.285Z,75.82
2019-01-13T00:45:08.417Z,75.88
2019-01-13T00:46:11.883Z,75.79
2019-01-13T00:47:15.173Z,75.81
2019-01-13T00:48:18.492Z,75.58
2019-01-13T00:49:21.777Z,75.61
2019-01-13T00:50:25.065Z,75.69
2019-01-13T00:51:28.364Z,75.99
2019-01-13T00:52:31.645Z,75.97
2019-01-13T00:53:34.947Z,75.98
2019-01-13T00:54:38.242Z,75.96
2019-01-13T00:55:41.535Z,75.78
2019-01-13T00:56:44.899Z,75.66
2019-01-13T00:57:48.185Z,75.76
2019-01-13T00:58:51.476Z,75.83
2019-01-13T00:59:54.764Z,75.67
2019-01-13T01:00:58.126Z,75.58
2019-01-13T01:02:01.412Z,75.52
2019-01-13T01:03:04.866Z,75.62
2019-01-13T01:04:08.187Z,75.62
2019-01-13T01:05:11.550Z,75.80
2019-01-13T01:06:14.839Z,76.07
2019-01-13T01:07:18.189Z,75.91
2019-01-13T01:08:21.552Z,75.76
2019-01-13T01:09:24.854Z,76.15
2019-01-13T01:10:28.162Z,76.30
2019-01-13T01:11:31.593Z,76.23
2019-01-13T01:12:34.955Z,76.06
2019-01-13T01:13:38.242Z,76.21
2019-01-13T01:14:41.642Z,76.25
2019-01-13T01:15:44.998Z,76.21
2019-01-13T01:16:48.351Z,76.37
2019-01-13T01:17:51.704Z,76.31
2019-01-13T01:18:55.069Z,76.42
2019-01-13T01:19:58.406Z,76.26
2019-01-13T01:21:01.863Z,76.18
2019-01-13T01:22:05.345Z,76.20
2019-01-13T01:23:09.037Z,76.25
2019-01-13T01:24:12.423Z,76.40
2019-01-13T01:25:17.391Z,76.42
2019-01-13T01:26:20.688Z,76.69
2019-01-13T01:27:23.985Z,77.03
2019-01-13T01:28:27.267Z,77.40
2019-01-13T01:29:30.551Z,77.75
2019-01-13T01:30:33.882Z,77.93
2019-01-13T01:31:37.242Z,77.93
2019-01-13T01:32:40.525Z,78.14
2019-01-13T01:33:43.879Z,78.09
2019-01-13T01:34:47.245Z,78.13
2019-01-13T01:35:50.579Z,78.23
2019-01-13T01:36:54.298Z,78.35
2019-01-13T01:37:57.735Z,78.36
2019-01-13T01:39:01.027Z,78.31
2019-01-13T01:40:07.583Z,78.07
2019-01-13T01:41:10.905Z,77.57
2019-01-13T01:42:14.189Z,77.49
2019-01-13T01:43:17.473Z,77.65
2019-01-13T01:44:20.759Z,77.81
2019-01-13T01:45:24.042Z,78.08
2019-01-13T01:46:27.365Z,78.11
2019-01-13T01:47:30.652Z,78.14
2019-01-13T01:48:33.945Z,77.93
2019-01-13T01:49:37.234Z,77.76
2019-01-13T01:50:40.528Z,77.70
2019-01-13T01:51:43.927Z,77.68
2019-01-13T01:52:47.211Z,77.36
2019-01-13T01:53:50.499Z,77.20
2019-01-13T01:54:53.789Z,77.23
2019-01-13T01:55:57.086Z,77.33
2019-01-13T01:57:00.478Z,77.38
2019-01-13T01:58:03.760Z,77.30
2019-01-13T01:59:07.049Z,77.34
2019-01-13T02:00:13.819Z,77.29
2019-01-13T02:01:17.109Z,77.38
2019-01-13T02:02:22.172Z,77.29
2019-01-13T02:03:25.467Z,77.24
2019-01-13T02:04:28.766Z,77.04
2019-01-13T02:05:32.024Z,76.96
2019-01-13T02:06:35.356Z,77.04
2019-01-13T02:07:38.655Z,77.18
2019-01-13T02:08:41.940Z,77.53
2019-01-13T02:09:45.299Z,77.84
2019-01-13T02:10:48.582Z,78.10
2019-01-13T02:11:51.869Z,78.10
2019-01-13T02:12:55.509Z,78.24
2019-01-13T02:13:58.800Z,78.39
2019-01-13T02:15:02.079Z,78.52
2019-01-13T02:16:05.370Z,78.69
2019-01-13T02:17:08.726Z,78.70
2019-01-13T02:18:12.047Z,78.55
2019-01-13T02:19:15.337Z,78.11
2019-01-13T02:20:19.638Z,77.86
2019-01-13T02:21:22.995Z,77.85
2019-01-13T02:22:26.288Z,77.87
2019-01-13T02:23:29.634Z,77.81
2019-01-13T02:24:32.917Z,77.97
2019-01-13T02:25:36.574Z,78.11
2019-01-13T02:26:39.874Z,78.13
2019-01-13T02:27:43.242Z,78.02
2019-01-13T02:28:46.567Z,77.97
2019-01-13T02:29:49.850Z,77.90
2019-01-13T02:30:53.132Z,77.77
2019-01-13T02:31:56.422Z,77.78
2019-01-13T02:32:59.775Z,77.60
2019-01-13T02:34:03.103Z,77.36
2019-01-13T02:35:08.125Z,77.57
2019-01-13T02:36:11.486Z,77.60
2019-01-13T02:37:14.791Z,77.94
2019-01-13T02:38:18.072Z,77.93
2019-01-13T02:39:21.735Z,77.79
2019-01-13T02:40:25.386Z,77.68
2019-01-13T02:41:29.138Z,77.47
2019-01-13T02:42:32.502Z,77.50
2019-01-13T02:43:35.787Z,77.63
2019-01-13T02:44:39.443Z,77.59
2019-01-13T02:45:42.744Z,77.60
2019-01-13T02:46:46.029Z,77.72
2019-01-13T02:47:49.343Z,77.85
2019-01-13T02:48:52.633Z,78.00
2019-01-13T02:49:55.953Z,78.08
2019-01-13T02:50:59.242Z,78.16
2019-01-13T02:52:02.535Z,78.12
2019-01-13T02:53:05.895Z,78.40
2019-01-13T02:54:09.246Z,78.54
2019-01-13T02:55:12.602Z,78.59
2019-01-13T02:56:15.891Z,78.42
2019-01-13T02:57:19.176Z,78.25
2019-01-13T02:58:22.844Z,78.38
2019-01-13T02:59:26.125Z,78.35
2019-01-13T03:00:29.469Z,78.59
2019-01-13T03:01:32.827Z,78.75
2019-01-13T03:02:36.118Z,78.60
2019-01-13T03:03:39.445Z,78.40
2019-01-13T03:04:42.761Z,78.40
2019-01-13T03:05:46.094Z,78.37
2019-01-13T03:06:49.381Z,78.22
2019-01-13T03:07:52.680Z,78.23
2019-01-13T03:08:56.036Z,78.10
2019-01-13T03:09:59.330Z,78.13
2019-01-13T03:11:02.967Z,77.97
2019-01-13T03:12:06.589Z,77.92
2019-01-13T03:13:09.883Z,78.05
2019-01-13T03:14:13.185Z,78.21
2019-01-13T03:15:19.980Z,78.15
2019-01-13T03:16:23.322Z,78.13
2019-01-13T03:17:26.618Z,78.24
2019-01-13T03:18:29.914Z,78.55
2019-01-13T03:19:34.142Z,78.51
2019-01-13T03:20:37.474Z,78.47
2019-01-13T03:21:40.822Z,78.32
2019-01-13T03:22:44.174Z,78.28
2019-01-13T03:23:47.794Z,78.50
2019-01-13T03:24:51.084Z,78.58
2019-01-13T03:25:54.664Z,78.40
2019-01-13T03:26:57.981Z,78.27
2019-01-13T03:28:01.266Z,78.49
2019-01-13T03:29:04.702Z,78.54
2019-01-13T03:30:13.982Z,78.67
2019-01-13T03:31:17.338Z,78.57
2019-01-13T03:32:20.632Z,78.52
2019-01-13T03:33:23.934Z,78.64
2019-01-13T03:34:27.231Z,78.89
2019-01-13T03:35:30.535Z,78.84
2019-01-13T03:36:33.838Z,78.65
2019-01-13T03:37:37.161Z,78.62
2019-01-13T03:38:40.453Z,78.76
2019-01-13T03:39:43.740Z,78.75
2019-01-13T03:40:47.035Z,78.74
2019-01-13T03:41:50.311Z,78.67
2019-01-13T03:42:53.722Z,78.77
2019-01-13T03:43:57.130Z,78.67
2019-01-13T03:45:00.407Z,78.63
2019-01-13T03:46:03.701Z,78.51
2019-01-13T03:47:06.997Z,78.45
2019-01-13T03:48:10.314Z,78.48
2019-01-13T03:49:13.672Z,78.58
2019-01-13T03:50:19.474Z,78.91
2019-01-13T03:51:22.764Z,79.02
2019-01-13T03:52:26.402Z,79.16
2019-01-13T03:53:30.081Z,79.34
2019-01-13T03:54:33.370Z,79.64
2019-01-13T03:55:36.695Z,80.04
2019-01-13T03:56:39.968Z,80.18
2019-01-13T03:57:43.268Z,79.94
2019-01-13T03:58:46.904Z,79.82
2019-01-13T03:59:50.195Z,79.70
2019-01-13T04:00:53.482Z,79.55
2019-01-13T04:01:56.772Z,79.34
2019-01-13T04:03:00.063Z,79.14
2019-01-13T04:04:03.395Z,79.06
2019-01-13T04:05:06.953Z,79.09
2019-01-13T04:06:10.238Z,79.05
2019-01-13T04:07:13.528Z,78.92
2019-01-13T04:08:16.807Z,78.87
2019-01-13T04:09:20.123Z,78.88
2019-01-13T04:10:23.408Z,78.85
2019-01-13T04:11:26.691Z,78.86
2019-01-13T04:12:29.982Z,78.76
2019-01-13T04:13:33.261Z,78.64
2019-01-13T04:14:36.588Z,78.44
2019-01-13T04:15:41.712Z,78.43
2019-01-13T04:16:45.385Z,78.46
2019-01-13T04:17:48.673Z,78.48
2019-01-13T04:18:51.962Z,78.49
2019-01-13T04:19:55.304Z,78.58
2019-01-13T04:20:58.608Z,78.66
2019-01-13T04:22:02.211Z,78.60
2019-01-13T04:23:05.504Z,78.59
2019-01-13T04:24:08.795Z,78.72
2019-01-13T04:25:12.189Z,78.71
2019-01-13T04:26:15.478Z,78.75
2019-01-13T04:27:18.760Z,79.05
2019-01-13T04:28:22.050Z,79.35
2019-01-13T04:29:25.715Z,79.69
2019-01-13T04:30:29.047Z,79.85
2019-01-13T04:31:32.484Z,80.06
2019-01-13T04:32:35.765Z,80.32
2019-01-13T04:33:39.055Z,80.29
2019-01-13T04:34:42.343Z,80.24
2019-01-13T04:35:45.696Z,80.07
2019-01-13T04:36:48.988Z,79.89
2019-01-13T04:37:52.269Z,79.48
2019-01-13T04:38:55.615Z,79.00
2019-01-13T04:39:58.902Z,78.84
2019-01-13T04:41:02.222Z,78.57
2019-01-13T04:42:05.506Z,78.32
2019-01-13T04:43:08.927Z,78.12
2019-01-13T04:44:12.221Z,78.43
2019-01-13T04:45:15.507Z,78.86
2019-01-13T04:46:18.818Z,79.07
2019-01-13T04:47:22.105Z,79.05
2019-01-13T04:48:25.408Z,79.22
2019-01-13T04:49:28.688Z,79.32
2019-01-13T04:50:32.050Z,79.39
2019-01-13T04:51:35.373Z,79.20
2019-01-13T04:52:38.852Z,79.18
2019-01-13T04:53:42.108Z,79.33
2019-01-13T04:54:45.393Z,79.33
2019-01-13T04:55:48.672Z,79.38
2019-01-13T04:56:51.989Z,79.21
2019-01-13T04:57:55.275Z,78.95
2019-01-13T04:58:58.557Z,79.01
2019-01-13T05:00:01.845Z,79.07
2019-01-13T05:01:05.193Z,79.01
2019-01-13T05:02:08.535Z,78.96
2019-01-13T05:03:11.883Z,78.67
2019-01-13T05:04:15.170Z,78.49
2019-01-13T05:05:18.455Z,78.36
2019-01-13T05:06:21.813Z,78.27
2019-01-13T05:07:25.138Z,78.12
2019-01-13T05:08:28.474Z,78.09
2019-01-13T05:09:31.819Z,78.20
2019-01-13T05:10:35.130Z,78.35
2019-01-13T05:11:38.411Z,78.49
2019-01-13T05:12:42.074Z,78.50
2019-01-13T05:13:45.371Z,78.50
2019-01-13T05:14:48.662Z,78.48
2019-01-13T05:15:51.949Z,80.21
2019-01-13T05:16:55.244Z,82.20
2019-01-13T05:17:58.545Z,82.70
2019-01-13T05:19:01.833Z,81.74
2019-01-13T05:20:08.628Z,81.17
2019-01-13T05:21:11.926Z,80.17
2019-01-13T05:22:15.217Z,80.18
2019-01-13T05:23:18.540Z,81.30
2019-01-13T05:24:21.828Z,79.88
2019-01-13T05:25:25.116Z,78.67
2019-01-13T05:26:28.411Z,78.21
2019-01-13T05:27:31.699Z,78.16
2019-01-13T05:28:35.115Z,78.47
2019-01-13T05:29:39.368Z,78.27
2019-01-13T05:30:42.721Z,78.33
2019-01-13T05:31:46.016Z,78.26
2019-01-13T05:32:49.471Z,78.09
2019-01-13T05:33:53.216Z,77.97
2019-01-13T05:34:56.605Z,77.84
2019-01-13T05:35:59.889Z,77.83
2019-01-13T05:37:04.812Z,77.82
2019-01-13T05:38:08.099Z,77.93
2019-01-13T05:39:11.436Z,77.98
2019-01-13T05:40:16.661Z,77.97
2019-01-13T05:41:19.956Z,78.09
2019-01-13T05:42:23.262Z,78.43
2019-01-13T05:43:26.562Z,78.66
2019-01-13T05:44:29.886Z,78.70
2019-01-13T05:45:33.335Z,78.59
2019-01-13T05:46:36.763Z,78.37
2019-01-13T05:47:40.101Z,78.29
2019-01-13T05:48:43.394Z,78.21
2019-01-13T05:49:46.755Z,78.29
2019-01-13T05:51:09.227Z,78.29
2019-01-13T05:52:12.512Z,79.09
2019-01-13T05:53:15.879Z,78.98
2019-01-13T05:54:19.274Z,79.00
2019-01-13T05:55:22.784Z,79.34
2019-01-13T05:56:26.144Z,79.48
2019-01-13T05:57:29.556Z,79.42
2019-01-13T05:58:32.846Z,79.38
2019-01-13T05:59:36.192Z,79.38
2019-01-13T06:00:40.149Z,79.11
2019-01-13T06:01:49.067Z,78.79
2019-01-13T06:02:48.495Z,78.77
2019-01-13T06:03:51.948Z,78.94
2019-01-13T06:04:55.229Z,78.93
2019-01-13T06:06:00.678Z,79.17
2019-01-13T06:07:03.978Z,79.16
2019-01-13T06:08:07.308Z,79.63
2019-01-13T06:09:10.593Z,79.42
2019-01-13T06:10:16.844Z,79.40
2019-01-13T06:11:20.134Z,78.98
2019-01-13T06:12:23.420Z,79.25
2019-01-13T06:13:26.751Z,78.86
2019-01-13T06:14:30.039Z,78.94
2019-01-13T06:15:33.332Z,79.00
2019-01-13T06:16:36.629Z,79.09
2019-01-13T06:17:39.935Z,79.11
2019-01-13T06:18:43.279Z,79.19
2019-01-13T06:19:46.671Z,79.20
2019-01-13T06:20:49.959Z,79.29
2019-01-13T06:21:53.244Z,79.36
2019-01-13T06:22:56.543Z,79.43
2019-01-13T06:23:59.865Z,79.30
2019-01-13T06:25:03.157Z,78.96
2019-01-13T06:26:06.447Z,78.83
2019-01-13T06:27:09.734Z,78.57
2019-01-13T06:28:13.029Z,78.44
2019-01-13T06:29:16.349Z,78.38
2019-01-13T06:30:20.984Z,78.40
2019-01-13T06:31:24.303Z,78.27
2019-01-13T06:32:27.603Z,78.17
2019-01-13T06:33:30.892Z,78.01
2019-01-13T06:34:34.216Z,77.83
2019-01-13T06:35:37.511Z,77.98
2019-01-13T06:36:40.808Z,78.06
2019-01-13T06:37:44.611Z,78.03
2019-01-13T06:38:47.906Z,78.09
2019-01-13T06:39:51.232Z,78.39
2019-01-13T06:40:54.529Z,78.76
2019-01-13T06:41:57.812Z,78.50
2019-01-13T06:43:01.113Z,78.32
2019-01-13T06:44:04.410Z,78.29
2019-01-13T06:45:13.177Z,78.27
2019-01-13T06:46:16.542Z,78.44
2019-01-13T06:47:19.899Z,78.48
2019-01-13T06:48:23.610Z,78.32
2019-01-13T06:49:27.075Z,78.16
2019-01-13T06:50:30.474Z,77.86
2019-01-13T06:51:33.766Z,77.77
2019-01-13T06:52:37.160Z,77.72
2019-01-13T06:53:40.459Z,77.99
2019-01-13T06:54:43.765Z,78.06
2019-01-13T06:55:47.094Z,77.95
2019-01-13T06:56:50.379Z,78.04
2019-01-13T06:57:54.090Z,77.54
2019-01-13T06:58:57.385Z,77.40
2019-01-13T07:00:00.672Z,77.28
2019-01-13T07:01:04.004Z,77.38
2019-01-13T07:02:07.297Z,77.22
2019-01-13T07:03:10.647Z,76.84
2019-01-13T07:04:13.936Z,76.69
2019-01-13T07:05:17.227Z,76.54
2019-01-13T07:06:20.604Z,75.89
2019-01-13T07:07:23.900Z,76.56
2019-01-13T07:08:27.191Z,77.41
2019-01-13T07:09:30.482Z,77.29
2019-01-13T07:10:33.761Z,76.44
2019-01-13T07:11:37.230Z,75.61
2019-01-13T07:12:40.520Z,75.44
2019-01-13T07:13:43.818Z,75.52
2019-01-13T07:14:47.101Z,75.14
2019-01-13T07:15:50.402Z,74.30
2019-01-13T07:16:53.738Z,74.33
2019-01-13T07:17:57.011Z,74.49
2019-01-13T07:19:00.376Z,74.96
2019-01-13T07:20:06.721Z,75.14
2019-01-13T07:21:10.020Z,75.13
2019-01-13T07:22:13.340Z,75.30
2019-01-13T07:23:16.629Z,75.23
2019-01-13T07:24:19.997Z,75.11
2019-01-13T07:25:23.297Z,74.98
2019-01-13T07:26:26.653Z,75.12
2019-01-13T07:27:29.987Z,75.35
2019-01-13T07:28:33.273Z,75.40
2019-01-13T07:29:36.606Z,75.35
2019-01-13T07:30:39.953Z,75.04
2019-01-13T07:31:43.247Z,75.14
2019-01-13T07:32:46.576Z,75.01
2019-01-13T07:33:50.229Z,74.78
2019-01-13T07:34:53.557Z,74.58
2019-01-13T07:35:56.859Z,74.36
2019-01-13T07:37:00.175Z,74.11
2019-01-13T07:38:03.472Z,74.31
2019-01-13T07:39:07.546Z,74.64
2019-01-13T07:40:16.324Z,74.89
2019-01-13T07:41:19.712Z,74.97
2019-01-13T07:42:23.065Z,74.76
2019-01-13T07:46:33.507Z,74.36
2019-01-13T07:47:43.217Z,73.58
2019-01-13T07:48:48.224Z,73.64
2019-01-13T07:49:51.514Z,73.38
2019-01-13T07:50:59.558Z,73.27
2019-01-13T07:52:04.681Z,73.31
2019-01-13T07:53:08.019Z,72.94
2019-01-13T07:55:43.162Z,72.86
2019-01-13T07:56:54.138Z,71.95
2019-01-13T07:58:01.984Z,71.80
2019-01-13T07:59:11.174Z,71.65
2019-01-13T08:00:20.236Z,71.75
2019-01-13T08:01:32.360Z,71.50
2019-01-13T08:02:52.544Z,71.69
2019-01-13T08:03:55.863Z,71.63
2019-01-13T08:04:59.174Z,70.69
2019-01-13T08:06:02.810Z,70.11
2019-01-13T08:07:06.097Z,70.08
2019-01-13T08:08:09.394Z,70.43
2019-01-13T08:09:12.719Z,70.72
2019-01-13T08:10:16.303Z,70.94
2019-01-13T08:11:19.969Z,70.87
2019-01-13T08:12:23.252Z,70.72
2019-01-13T08:13:26.545Z,70.22
2019-01-13T08:14:29.945Z,70.14
2019-01-13T08:15:33.317Z,70.46
2019-01-13T08:16:36.597Z,70.28
2019-01-13T08:17:39.891Z,70.42
2019-01-13T08:18:43.183Z,70.24
2019-01-13T08:19:46.513Z,70.71
2019-01-13T08:20:49.919Z,70.56
2019-01-13T08:21:53.208Z,70.32
2019-01-13T08:22:56.494Z,69.69
2019-01-13T08:23:59.789Z,69.46
2019-01-13T08:25:03.113Z,69.21
2019-01-13T08:26:06.473Z,68.70
2019-01-13T08:27:09.756Z,67.64
2019-01-13T08:28:13.970Z,68.05
2019-01-13T08:29:17.248Z,67.89
2019-01-13T08:30:21.022Z,67.60
2019-01-13T08:31:24.304Z,67.55
2019-01-13T08:32:27.663Z,67.03
2019-01-13T08:33:30.961Z,67.13
2019-01-13T08:34:34.388Z,65.90
2019-01-13T08:35:37.892Z,65.62
2019-01-13T08:36:41.487Z,65.94
2019-01-13T08:37:44.834Z,65.38
2019-01-13T08:38:48.194Z,65.61
2019-01-13T08:39:51.490Z,65.18
2019-01-13T08:40:54.931Z,65.68
2019-01-13T08:41:58.572Z,64.91
2019-01-13T08:43:02.216Z,65.02
2019-01-13T08:44:05.562Z,63.96
2019-01-13T08:45:10.301Z,64.37
2019-01-13T08:46:13.754Z,64.56
2019-01-13T08:47:17.038Z,64.33
2019-01-13T08:48:20.485Z,64.69
2019-01-13T08:49:23.765Z,64.77
2019-01-13T08:50:27.117Z,63.96
2019-01-13T08:51:31.743Z,63.43
2019-01-13T08:52:35.106Z,62.85
2019-01-13T08:53:38.381Z,63.49
2019-01-13T08:54:41.660Z,63.45
2019-01-13T08:55:44.944Z,62.66
2019-01-13T08:56:48.440Z,63.34
2019-01-13T08:57:51.705Z,63.49
2019-01-13T08:58:55.118Z,63.22
2019-01-13T08:59:58.399Z,62.82
2019-01-13T09:01:01.783Z,62.15
2019-01-13T09:02:05.445Z,61.48
2019-01-13T09:03:08.736Z,62.03
2019-01-13T09:04:12.007Z,62.43
2019-01-13T09:05:15.362Z,62.24
2019-01-13T09:06:18.655Z,62.85
2019-01-13T09:07:22.052Z,63.53
2019-01-13T09:08:25.348Z,63.04
2019-01-13T09:09:30.114Z,62.86
2019-01-13T09:10:34.058Z,62.31
2019-01-13T09:11:37.421Z,62.82
2019-01-13T09:12:40.893Z,62.86
2019-01-13T09:13:44.327Z,63.46
2019-01-13T09:14:47.614Z,63.48
2019-01-13T09:15:50.964Z,63.69
2019-01-13T09:16:54.252Z,63.72
2019-01-13T09:17:57.604Z,63.82
2019-01-13T09:19:00.933Z,63.99
2019-01-13T09:20:07.580Z,63.58
2019-01-13T09:21:10.890Z,63.37
2019-01-13T09:22:14.192Z,63.12
2019-01-13T09:23:17.576Z,63.18
2019-01-13T09:24:20.917Z,63.76
2019-01-13T09:25:24.203Z,63.61
2019-01-13T09:26:27.493Z,63.87
2019-01-13T09:27:30.783Z,63.67
2019-01-13T09:28:34.092Z,64.16
2019-01-13T09:29:42.412Z,64.06
2019-01-13T09:30:42.401Z,64.35
2019-01-13T09:31:45.745Z,65.02
2019-01-13T09:32:49.472Z,64.58
2019-01-13T09:33:52.804Z,64.88
2019-01-13T09:34:56.088Z,64.27
2019-01-13T09:35:59.381Z,64.56
2019-01-13T09:37:02.780Z,63.44
2019-01-13T09:38:06.881Z,63.74
2019-01-13T09:39:10.281Z,63.11
2019-01-13T09:40:16.770Z,62.70
2019-01-13T09:41:20.074Z,62.64
2019-01-13T09:42:23.475Z,61.94
2019-01-13T09:43:26.848Z,61.65
2019-01-13T09:44:30.247Z,61.82
2019-01-13T09:45:33.611Z,61.75
2019-01-13T09:46:36.899Z,61.44
2019-01-13T09:47:40.222Z,60.23
2019-01-13T09:48:43.577Z,60.26
2019-01-13T09:49:49.952Z,61.45
2019-01-13T09:50:51.882Z,60.71
2019-01-13T09:51:55.567Z,61.62
2019-01-13T09:52:58.896Z,61.62
2019-01-13T09:54:02.176Z,61.53
2019-01-13T09:55:08.671Z,61.62
2019-01-13T09:56:11.962Z,61.95
2019-01-13T09:57:15.255Z,61.90
2019-01-13T09:58:19.062Z,61.98
2019-01-13T09:59:22.409Z,62.45
2019-01-13T10:00:28.600Z,62.61
2019-01-13T10:01:32.291Z,61.83
2019-01-13T10:02:35.591Z,62.26
2019-01-13T10:03:40.141Z,62.73
2019-01-13T10:04:43.491Z,63.06
2019-01-13T10:05:46.845Z,62.29
2019-01-13T10:06:50.492Z,62.68
2019-01-13T10:07:53.840Z,63.16
2019-01-13T10:08:57.220Z,63.09
2019-01-13T10:10:00.509Z,63.26
2019-01-13T10:11:03.848Z,62.89
2019-01-13T10:12:07.202Z,63.13
2019-01-13T10:13:10.714Z,62.57
2019-01-13T10:14:14.050Z,62.00
2019-01-13T10:15:19.729Z,61.87
2019-01-13T10:16:23.408Z,61.73
2019-01-13T10:17:26.694Z,61.45
2019-01-13T10:18:30.069Z,60.56
2019-01-13T10:19:33.949Z,60.83
2019-01-13T10:20:37.325Z,59.88
2019-01-13T10:21:41.665Z,59.28
2019-01-13T10:22:45.043Z,59.74
2019-01-13T10:23:48.491Z,59.17
2019-01-13T10:24:51.805Z,58.77
2019-01-13T10:25:55.241Z,58.91
2019-01-13T10:27:00.240Z,59.26
2019-01-13T10:28:03.835Z,60.57
2019-01-13T10:29:07.120Z,59.45
2019-01-13T10:30:16.073Z,59.16
2019-01-13T10:31:19.399Z,59.26
2019-01-13T10:32:22.740Z,58.75
2019-01-13T10:33:26.112Z,59.02
2019-01-13T10:34:29.402Z,59.46
2019-01-13T10:35:32.868Z,59.60
2019-01-13T10:36:36.158Z,60.01
2019-01-13T10:37:39.499Z,60.18
2019-01-13T10:38:43.169Z,60.97
2019-01-13T10:40:05.368Z,59.44
2019-01-13T10:41:08.661Z,59.24
2019-01-13T10:42:11.963Z,60.10
2019-01-13T10:43:15.410Z,59.39
2019-01-13T10:44:18.863Z,57.77
2019-01-13T10:45:23.454Z,58.50
2019-01-13T10:46:26.752Z,58.07
2019-01-13T10:47:35.719Z,56.95
2019-01-13T10:48:40.669Z,57.13
2019-01-13T10:49:44.100Z,57.43
2019-01-13T10:50:47.838Z,57.56
2019-01-13T10:51:52.666Z,57.23
2019-01-13T10:52:57.917Z,56.41
2019-01-13T10:54:01.314Z,56.17
2019-01-13T10:55:07.025Z,55.42
2019-01-13T10:56:12.702Z,55.00
2019-01-13T10:57:19.056Z,54.16
2019-01-13T10:58:22.453Z,54.92
2019-01-13T10:59:25.950Z,55.25
2019-01-13T11:00:33.246Z,55.65
2019-01-13T11:01:38.189Z,56.21
2019-01-13T11:02:41.988Z,56.23
2019-01-13T11:03:46.039Z,56.87
2019-01-13T11:04:49.500Z,56.69
2019-01-13T11:05:55.731Z,56.73
2019-01-13T11:07:00.736Z,56.62
2019-01-13T11:08:11.057Z,56.80
2019-01-13T11:09:11.326Z,57.13
2019-01-13T11:10:19.162Z,57.11
2019-01-13T11:11:22.577Z,56.31
2019-01-13T11:12:25.874Z,56.36
2019-01-13T11:13:29.233Z,57.39
2019-01-13T11:14:32.538Z,56.94
2019-01-13T11:15:35.928Z,55.81
2019-01-13T11:16:39.218Z,55.54
2019-01-13T11:17:42.573Z,54.40
2019-01-13T11:18:45.976Z,54.92
2019-01-13T11:19:49.417Z,54.96
2019-01-13T11:20:52.957Z,55.04
2019-01-13T11:21:56.515Z,54.58
2019-01-13T11:22:59.880Z,53.29
2019-01-13T11:24:03.430Z,53.24
2019-01-13T11:25:08.338Z,53.31
2019-01-13T11:26:11.712Z,53.02
2019-01-13T11:27:15.424Z,52.56
2019-01-13T11:28:18.729Z,52.82
2019-01-13T11:29:22.009Z,54.25
2019-01-13T11:30:26.752Z,54.07
2019-01-13T11:31:30.168Z,53.13
2019-01-13T11:32:33.524Z,51.84
2019-01-13T11:33:36.800Z,52.84
2019-01-13T11:34:40.168Z,52.71
2019-01-13T11:35:45.723Z,50.92
2019-01-13T11:36:49.642Z,50.32
2019-01-13T11:37:53.029Z,50.63
2019-01-13T11:38:56.490Z,50.99
2019-01-13T11:39:59.849Z,51.96
2019-01-13T11:41:03.277Z,50.18
2019-01-13T11:42:06.608Z,50.80
2019-01-13T11:43:11.255Z,50.91
2019-01-13T11:44:14.766Z,50.69
2019-01-13T11:45:18.218Z,49.86
2019-01-13T11:46:23.866Z,49.02
2019-01-13T11:47:40.358Z,48.37
2019-01-13T11:48:43.646Z,46.67
2019-01-13T11:49:47.133Z,47.33
2019-01-13T11:50:50.520Z,47.68
2019-01-13T11:51:54.116Z,46.68
2019-01-13T11:53:05.236Z,47.70
2019-01-13T11:54:22.526Z,47.17
2019-01-13T11:55:28.787Z,47.40
2019-01-13T11:56:32.358Z,46.88
2019-01-13T11:57:35.744Z,46.69
2019-01-13T11:58:39.095Z,45.96
2019-01-13T11:59:46.857Z,47.28
2019-01-13T12:00:50.423Z,46.39
2019-01-13T12:01:53.778Z,46.86
2019-01-13T12:02:57.387Z,47.71
2019-01-13T12:04:01.732Z,47.14
2019-01-13T12:05:06.903Z,46.83
2019-01-13T12:06:10.327Z,48.12
2019-01-13T12:07:13.816Z,46.88
2019-01-13T12:08:17.284Z,48.39
2019-01-13T12:09:20.651Z,49.31
2019-01-13T12:10:24.331Z,49.70
2019-01-13T12:11:27.749Z,48.96
2019-01-13T12:12:31.034Z,48.27
2019-01-13T12:13:34.322Z,49.12
2019-01-13T12:14:37.788Z,48.78
2019-01-13T12:15:41.092Z,49.97
2019-01-13T12:16:45.338Z,50.82
2019-01-13T12:17:48.617Z,49.71
2019-01-13T12:18:52.038Z,50.88
2019-01-13T12:19:55.348Z,50.22
2019-01-13T12:20:58.641Z,51.30
2019-01-13T12:22:02.061Z,51.79
2019-01-13T12:23:05.443Z,51.77
2019-01-13T12:24:08.728Z,51.02
2019-01-13T12:25:14.548Z,50.65
2019-01-13T12:26:17.913Z,50.83
2019-01-13T12:27:21.333Z,51.32
2019-01-13T12:28:24.694Z,51.63
2019-01-13T12:29:27.978Z,52.19
2019-01-13T12:30:32.018Z,52.86
2019-01-13T12:31:35.402Z,52.18
2019-01-13T12:32:38.766Z,50.83
2019-01-13T12:33:42.045Z,52.01
2019-01-13T12:34:45.404Z,52.31
2019-01-13T12:35:48.730Z,53.26
2019-01-13T12:36:52.102Z,50.96
2019-01-13T12:37:57.551Z,51.25
2019-01-13T12:39:00.909Z,50.99
2019-01-13T12:40:10.671Z,50.83
2019-01-13T12:41:14.008Z,50.81
2019-01-13T12:42:17.264Z,51.20
2019-01-13T12:43:20.595Z,51.75
2019-01-13T12:44:23.899Z,52.94
2019-01-13T12:45:27.195Z,52.58
2019-01-13T12:46:30.496Z,53.15
2019-01-13T12:47:33.779Z,53.46
2019-01-13T12:48:37.100Z,53.09
2019-01-13T12:49:40.373Z,53.89
2019-01-13T12:50:43.660Z,54.15
2019-01-13T12:51:46.957Z,53.85
2019-01-13T12:52:50.309Z,55.39
2019-01-13T12:53:53.814Z,54.64
2019-01-13T12:54:57.208Z,54.25
2019-01-13T12:56:00.581Z,54.25
2019-01-13T12:57:04.021Z,55.15
2019-01-13T12:58:07.411Z,54.41
2019-01-13T12:59:10.827Z,54.65
2019-01-13T13:00:18.978Z,55.24
2019-01-13T13:01:22.510Z,55.04
2019-01-13T13:02:25.907Z,56.42
2019-01-13T13:03:31.818Z,56.08
2019-01-13T13:04:34.536Z,56.07
2019-01-13T13:05:37.928Z,56.75
2019-01-13T13:06:41.321Z,55.55
2019-01-13T13:07:45.617Z,55.03
2019-01-13T13:08:48.981Z,54.17
2019-01-13T13:09:52.319Z,53.07
2019-01-13T13:10:55.684Z,53.63
2019-01-13T13:11:59.072Z,54.53
2019-01-13T13:13:02.621Z,54.01
2019-01-13T13:14:05.943Z,53.95
2019-01-13T13:15:09.813Z,52.93
2019-01-13T13:16:13.171Z,52.36
2019-01-13T13:17:16.662Z,54.09
2019-01-13T13:18:20.005Z,53.76
2019-01-13T13:19:23.500Z,54.09
2019-01-13T13:20:26.817Z,52.45
2019-01-13T13:21:31.824Z,52.97
2019-01-13T13:22:36.792Z,52.60
2019-01-13T13:23:40.199Z,53.88
2019-01-13T13:24:43.715Z,53.49
2019-01-13T13:25:47.048Z,53.94
2019-01-13T13:26:50.337Z,54.80
2019-01-13T13:27:53.749Z,54.63
2019-01-13T13:28:57.139Z,54.84
2019-01-13T13:30:01.062Z,55.01
2019-01-13T13:31:04.360Z,55.48
2019-01-13T13:32:07.660Z,55.05
2019-01-13T13:33:11.000Z,54.34
2019-01-13T13:34:14.375Z,55.31
2019-01-13T13:35:17.701Z,55.68
2019-01-13T13:36:21.024Z,55.63
2019-01-13T13:37:24.309Z,55.76
2019-01-13T13:38:27.611Z,55.82
2019-01-13T13:39:30.973Z,56.55
2019-01-13T13:40:34.272Z,55.83
2019-01-13T13:41:37.613Z,56.26
2019-01-13T13:42:41.081Z,55.86
2019-01-13T13:43:45.392Z,55.53
2019-01-13T13:44:48.783Z,55.38
2019-01-13T13:45:52.078Z,56.44